sim
Sign-in with your pilot id or email,
or register
Callsign
Passwort

Schedule Details

Flight Number: DLH2544 (2)
Departure: Munich Airport (EDDM) at 10:40
Arrival: Kiev Boryspil International Airport (UKBB) at 12:50
Route: Lufthansa Passenger Schedule. Enter filed route here before submitting Pirep.

Weather Information
Getting current METAR information for EDDM 262220Z 23017KT 9999 SCT022 BKN031 07/04 Q1002 NOSIG
Getting current METAR information for UKBB 262200Z 12005MPS CAVOK 21/06 Q1006 R18L/CLRD// TEMPO 12012G18MPS

Schedule Frequency

Route Map